Kezdőlap
METAR-TAF:

METAR-TAF

Repülőterek :

Keetmanshoop, Namíbia

földrajzi szélesség: 26-32S, földrajzi hosszúság: 018-07E, magasság: 1067 m

Jelenlegi meteorológiai megfigyelések

A jelentés 1 órával és 0 perccel ezelõtt készült, 09:00 UTC
Kelet-északkeleti szél 3 kt
Hőmérséklet 25°C
Páratartalom 18%
Légköri nyomás 1027 hPa
Látótávolság 10 km, vagy több
felhőtlen 1500 m magasságban, és nincs gomolyfelhõ

METAR: FYKT 260900Z 06003KT CAVOK 25/M01 Q1027

Idő: 12:00 (10:00 UTC)

Előrejelzés

A jelentés 6 órával és 0 perccel ezelõtt készült, 04:00 UTC
Az előrejelzés 26-én 06 óra UTC és 27-én 06 óra UTC között érvényes
Kelet-északkeleti szél 6 kt
Látótávolság 10 km, vagy több
felhőtlen 1500 m magasságban, és nincs gomolyfelhõ
26-én 09 óra UTC és 26-én 11 óra UTC között fokozatosan kialakuló
Észak-északkeleti szél 13 kt

TAF: FYKT 260400Z 2606/2706 06006KT CAVOK BECMG 2609/2611 03013KT

Meteorológiai megfigyelések és előrejelzések több, mint 4000 repülőtéren (METAR és TAF jelentéseket).

A térképen piros és sárga pontok jelzik az elérhető meteorológiai állomásokat.

Mozgassa az egeret a pont fölött, hogy megjelenjen az állomás neve.

Azután kattintson az időjárási megfigyelések és előrejelzések megtekintéséhez.

A térkép megváltoztatása: kattintson a fekete keresztel jelölt zöld gombra ráközelítéshez, a vonallal jelölt zöld gombra távolításhoz, vagy a zöld nyilakra a szomszédos térképek eléréséhez.


METAR-TAF: